Flight Track Log - Related Links

Times and Time Zones

All times are in EDT time to prevent confusion due to time zone crossing. See the AAL1110 flight status page for this flight to view local times or setup timezone preferences in your user account.

Time Position Orientation Groundspeed Altitude Reporting Facility
EDT Latitude Longitude Course Direction KTS MPH feet Rate Location/Type
Mon 08:11:06 PM 26.0739 -80.1783 318° Northwest 168 193 800  Level Miami Center
Mon 08:11:49 PM 26.0753 -80.2153 272° West 168 193 2,200 2,100 Climbing Miami Center
Mon 08:13:00 PM 26.1988 -79.9332 354° North  Level FlightAware Approximate
Mon 08:13:00 PM 26.2024 -80.2662 340° North  Level Estimated
Mon 08:13:46 PM 26.1336 -80.3050 340° North 215 247 6,400  Level Miami Center
Mon 08:14:00 PM 26.2167 -80.0579 279° West  Level FlightAware Approximate
Mon 08:14:46 PM 26.2067 -80.3117 355° North 228 262 8,600  Level Miami Center
Mon 08:15:00 PM 26.2337 -80.1837 312° West  Level FlightAware Approximate
Mon 08:15:46 PM 26.2917 -80.3397 344° North 263 303 10,900  Level Miami Center
Mon 08:16:00 PM 26.3108 -80.2775 318° Northwest  Level FlightAware Approximate
Mon 08:17:00 PM 26.4268 -80.3938 342° North  Level Estimated
Mon 08:17:46 PM 26.4889 -80.3942 342° North 366 421 14,100  Level Miami Center
Mon 08:18:46 PM 26.5861 -80.4250 344° North 397 457 16,400 2,450 Climbing Miami Center
Mon 08:19:46 PM 26.7019 -80.4772 338° Northwest 397 457 19,000 2,150 Climbing Miami Center
Mon 08:20:46 PM 26.8011 -80.5153 341° North 407 468 20,700 2,150 Climbing Miami Center
Mon 08:21:46 PM 26.9128 -80.5631 339° North 413 475 23,300 2,150 Climbing Miami Center
Mon 08:22:46 PM 27.0264 -80.6061 341° North 418 481 25,000 1,650 Climbing Miami Center
Mon 08:23:46 PM 27.1422 -80.6497 341° North 429 494 26,600 1,600 Climbing Miami Center
Mon 08:24:46 PM 27.2578 -80.6956 341° North 435 501 28,200 1,500 Climbing Miami Center
Mon 08:25:46 PM 27.3778 -80.7414 341° North 440 506 29,600 1,550 Climbing Miami Center
Mon 08:26:46 PM 27.5039 -80.7881 342° North 445 512 31,300 1,600 Climbing Miami Center
Mon 08:27:46 PM 27.6258 -80.8342 341° North 445 512 32,800 1,200 Climbing Miami Center
Mon 08:28:46 PM 27.7372 -80.8828 339° North 445 512 33,700 1,200 Climbing Miami Center
Mon 08:30:00 PM 27.8750 -80.9233 341° North  Level FlightAware Approximate
Mon 08:30:46 PM 27.9767 -80.9758 341° North 445 512 36,400  Level Miami Center
Mon 08:31:46 PM 28.0942 -81.0200 342° North 445 512 36,900 196 Climbing Miami Center
Mon 08:33:00 PM 28.2278 -81.0732 341° North  Level FlightAware Approximate
Mon 08:33:50 PM 28.3233 -81.1122 341° North 425 489 37,000  Level Jacksonville Center
Mon 08:35:00 PM 28.4498 -81.1626 341° North  Level FlightAware Approximate
Mon 08:35:50 PM 28.5564 -81.2122 341° North 444 511 37,000  Level Jacksonville Center
Mon 08:36:50 PM 28.6717 -81.2575 341° North 444 511 37,000 -50 Level Jacksonville Center
Mon 08:37:50 PM 28.7869 -81.3031 341° North 438 504 36,900 -50 Descending Jacksonville Center
Mon 08:38:50 PM 28.9003 -81.3533 339° North 438 504 36,900 50 Level Jacksonville Center
Mon 08:39:50 PM 29.0178 -81.4014 340° North 433 498 37,000  Climbing Jacksonville Center
Mon 08:40:50 PM 29.1353 -81.4494 340° North 433 498 36,900  Descending Jacksonville Center
Mon 08:41:50 PM 29.2506 -81.4978 340° North 433 498 37,000 33 Climbing Jacksonville Center
Mon 08:43:00 PM 29.3776 -81.5465 342° North  Level FlightAware Approximate
Mon 08:43:50 PM 29.4853 -81.5947 342° North 433 498 37,000  Level Jacksonville Center
Mon 08:45:00 PM 29.6135 -81.6399 340° North  Level FlightAware Approximate
Mon 08:46:50 PM 29.8333 -81.7361 339° North 433 498 37,000  Level Jacksonville Center
Mon 08:47:50 PM 29.9486 -81.7828 341° North 433 498 37,000 -50 Level Jacksonville Center
Mon 08:48:50 PM 30.0764 -81.8342 341° North 433 498 36,900  Descending Jacksonville Center
Mon 08:49:50 PM 30.1894 -81.8808 340° North 426 490 37,000 50 Climbing Jacksonville Center
Mon 08:50:50 PM 30.3047 -81.9278 341° North 434 499 37,000  Level Jacksonville Center
Mon 08:52:00 PM 30.3876 -81.9686 339° North  Level FlightAware Approximate
Mon 08:52:00 PM 30.4410 -81.9591 342° North  Level FlightAware Approximate
Mon 08:52:50 PM 30.5328 -82.0194 342° North 437 503 37,000  Level Jacksonville Center
Mon 08:53:50 PM 30.6542 -82.0692 341° North 437 503 37,000  Level Jacksonville Center
Mon 08:55:00 PM 30.7911 -82.0952 351° North  Level FlightAware Approximate
Mon 08:55:50 PM 30.8908 -82.1567 351° North 447 514 37,000  Level Jacksonville Center
Mon 08:56:50 PM 31.0100 -82.2017 342° North 442 509 37,000  Level Jacksonville Center
Mon 08:57:50 PM 31.1250 -82.2469 341° North 442 509 37,000 -50 Level Jacksonville Center
Mon 08:58:50 PM 31.2444 -82.2900 343° North 442 509 36,900  Descending Jacksonville Center
Mon 09:00:34 PM 31.4347 -82.3594 343° North 442 509 37,000 37 Climbing Atlanta Center
Mon 09:01:34 PM 31.5542 -82.4036 343° North 442 509 37,000  Level Atlanta Center
Mon 09:03:00 PM 31.7175 -82.4610 343° North  Level FlightAware Approximate
Mon 09:03:33 PM 31.7953 -82.4922 343° North 442 509 37,000  Level Atlanta Center
Mon 09:04:33 PM 31.9169 -82.5389 342° North 449 517 37,000  Level Atlanta Center
Mon 09:05:33 PM 32.0364 -82.5836 342° North 449 517 37,000  Level Atlanta Center
Mon 09:06:33 PM 32.1581 -82.6306 342° North 444 511 37,000  Level Atlanta Center
Mon 09:07:33 PM 32.2797 -82.6778 342° North 449 517 37,000  Level Atlanta Center
Mon 09:08:33 PM 32.3992 -82.7228 342° North 444 511 37,000  Level Atlanta Center
Mon 09:10:33 PM 32.6358 -82.8153 342° North 442 509 37,000  Level Atlanta Center
Mon 09:12:00 PM 32.8013 -82.8737 342° North  Level FlightAware Approximate
Mon 09:13:33 PM 32.9983 -82.9564 342° North 447 514 37,000  Level Atlanta Center
Mon 09:15:33 PM 33.2539 -83.0528 342° North 454 522 37,000  Level Atlanta Center
Mon 09:16:33 PM 33.3753 -83.0986 343° North 454 522 37,000  Level Atlanta Center
Mon 09:17:33 PM 33.4989 -83.1469 342° North 454 522 37,000  Level Atlanta Center
Mon 09:18:33 PM 33.6203 -83.1956 342° North 462 532 37,000  Level Atlanta Center
Mon 09:20:00 PM 33.7858 -83.2595 342° North  Level FlightAware Approximate
Mon 09:21:33 PM 33.9842 -83.3347 347° North 451 519 37,000  Level Atlanta Center
Mon 09:22:33 PM 34.1097 -83.3689 347° North 451 519 37,000  Level Atlanta Center
Mon 09:23:33 PM 34.2350 -83.4006 348° North 459 528 37,000  Level Atlanta Center
Mon 09:24:33 PM 34.3625 -83.4375 347° North 459 528 37,000  Level Atlanta Center
Mon 09:25:33 PM 34.4881 -83.4692 348° North 459 528 37,000  Level Atlanta Center
Mon 09:26:33 PM 34.6175 -83.5036 348° North 466 536 37,000  Level Atlanta Center
Mon 09:27:00 PM 34.6018 -83.4928 347° North  Level FlightAware Approximate
Mon 09:27:33 PM 34.7261 -83.5383 345° North 466 536 37,000  Level Atlanta Center
Mon 09:29:00 PM 34.8968 -83.5786 349° North  Level FlightAware Approximate
Mon 09:29:33 PM 34.9831 -83.6028 349° North 467 537 37,000  Level Atlanta Center
Mon 09:30:33 PM 35.1083 -83.6403 346° North 467 537 37,000  Level Atlanta Center
Mon 09:31:33 PM 35.2358 -83.6750 347° North 467 537 37,000  Level Atlanta Center
Mon 09:32:33 PM 35.3631 -83.7103 347° North 467 537 37,000  Level Atlanta Center
Mon 09:33:33 PM 35.4883 -83.7456 347° North 467 537 37,000  Level Atlanta Center
Mon 09:34:33 PM 35.6178 -83.7833 347° North 467 537 37,000  Level Atlanta Center
Mon 09:35:33 PM 35.7453 -83.8161 348° North 467 537 37,000 50 Level Atlanta Center
Mon 09:36:33 PM 35.8744 -83.8517 347° North 467 537 37,100 350 Climbing Atlanta Center
Mon 09:37:33 PM 36.0019 -83.8900 346° North 467 537 37,700 305 Climbing Atlanta Center
Mon 09:39:30 PM 36.2589 -83.9581 348° North 469 540 38,000 60 Climbing Indianapolis Center
Mon 09:41:00 PM 36.4361 -84.0098 347° North  Level FlightAware Approximate
Mon 09:42:35 PM 36.6475 -84.0686 347° North 462 532 38,000  Level Indianapolis Center
Mon 09:43:36 PM 36.7711 -84.1042 347° North 456 525 38,000  Level Indianapolis Center
Mon 09:44:37 PM 36.8958 -84.1403 347° North 458 527 38,000  Level Indianapolis Center
Mon 09:45:39 PM 37.0203 -84.1747 348° North 457 526 38,000  Level Indianapolis Center
Mon 09:46:40 PM 37.1428 -84.2097 347° North 451 519 38,000  Level Indianapolis Center
Mon 09:47:41 PM 37.2636 -84.2458 347° North 447 514 38,000  Level Indianapolis Center
Mon 09:48:00 PM 37.2642 -84.2464 347° North  Level FlightAware Approximate
Mon 09:48:43 PM 37.3850 -84.2817 347° North 446 513 38,000  Level Indianapolis Center
Mon 09:49:44 PM 37.5250 -84.3225 347° North 443 510 38,000  Level Indianapolis Center
Mon 09:50:45 PM 37.6464 -84.3564 348° North 446 513 38,000  Level Indianapolis Center
Mon 09:51:46 PM 37.7669 -84.3944 346° North 446 513 38,000  Level Indianapolis Center
Mon 09:52:48 PM 37.8847 -84.4506 339° North 451 519 38,000 -49 Level Indianapolis Center
Mon 09:53:49 PM 38.0033 -84.5047 340° North 451 519 37,900 -393 Descending Indianapolis Center
Mon 09:54:50 PM 38.1214 -84.5589 340° North 451 519 37,200 -689 Descending Indianapolis Center
Mon 09:55:51 PM 38.2431 -84.6128 341° North 458 527 36,500 -391 Descending Indianapolis Center
Mon 09:57:54 PM 38.4947 -84.7269 340° North 481 554 36,000 -163 Descending Indianapolis Center
Mon 09:58:55 PM 38.6192 -84.7858 340° North 477 549 36,000 -393 Level Indianapolis Center
Mon 09:59:56 PM 38.7642 -84.8550 340° North 481 554 35,200 -885 Descending Indianapolis Center
Mon 10:00:57 PM 38.8931 -84.9133 341° North 491 565 34,200 -1,033 Descending Indianapolis Center
Mon 10:01:58 PM 39.0092 -84.9797 336° Northwest 465 535 33,100 -1,033 Descending Indianapolis Center
Mon 10:02:59 PM 39.1061 -85.0819 321° Northwest 452 520 32,100 -823 Descending Indianapolis Center
Mon 10:04:53 PM 39.2689 -85.2553 321° Northwest 426 490 30,700 -720 Descending Chicago Center
Mon 10:05:54 PM 39.3878 -85.3247 336° Northwest 397 457 30,000 -683 Descending Chicago Center
Mon 10:06:56 PM 39.4928 -85.3569 347° North 390 449 29,300 -732 Descending Chicago Center
Mon 10:07:57 PM 39.5964 -85.3911 346° North 388 447 28,500 -738 Descending Chicago Center
Mon 10:08:58 PM 39.6997 -85.4233 347° North 385 443 27,800 -732 Descending Chicago Center
Mon 10:10:00 PM 39.7997 -85.4553 346° North 377 434 27,000 -692 Descending Chicago Center
Mon 10:11:08 PM 39.9233 -85.4947 346° North 380 437 26,300 -465 Descending Indianapolis Center
Mon 10:12:09 PM 40.0367 -85.5308 346° North 414 476 26,000 -155 Descending Indianapolis Center
Mon 10:13:04 PM 40.1464 -85.6008 334° Northwest 446 513 26,000  Level Chicago Center
Mon 10:14:05 PM 40.2422 -85.7081 320° Northwest 457 526 26,000  Level Chicago Center
Mon 10:15:06 PM 40.3311 -85.8250 315° West 456 525 26,000  Level Chicago Center
Mon 10:16:08 PM 40.4222 -85.9414 316° Northwest 459 528 26,000  Level Chicago Center
Mon 10:18:10 PM 40.6033 -86.1764 315° West 462 532 26,000  Level Chicago Center
Mon 10:19:11 PM 40.6933 -86.2942 315° West 461 531 26,000 -98 Level Chicago Center
Mon 10:20:12 PM 40.7847 -86.4203 314° West 463 533 25,800 -585 Descending Chicago Center
Mon 10:21:14 PM 40.8750 -86.5378 315° West 461 531 24,800 -1,024 Descending Chicago Center
Mon 10:22:15 PM 40.9619 -86.6533 315° West 444 511 23,700 -1,426 Descending Chicago Center
Mon 10:23:16 PM 41.0631 -86.7853 315° West 437 503 21,900 -1,574 Descending Chicago Center
Mon 10:24:17 PM 41.1461 -86.8950 315° West 426 490 20,500 -1,475 Descending Chicago Center
Mon 10:25:18 PM 41.2250 -87.0044 314° West 416 479 18,900 -1,707 Descending Chicago Center
Mon 10:26:20 PM 41.3022 -87.1092 314° West 402 463 17,000 -2,367 Descending Chicago Center
Mon 10:27:45 PM 41.4167 -87.2667 314° West 377 434 13,100 -2,359 Descending Chicago TRACON
Mon 10:28:45 PM 41.5000 -87.3500 323° Northwest 364 419 11,300 -1,469 Descending Chicago TRACON
Mon 10:29:23 PM 41.5442 -87.4042 317° Northwest 361 415 10,700 -780 Descending Chicago Center
Mon 10:30:25 PM 41.6178 -87.4858 320° Northwest 351 404 10,000 -341 Descending Chicago Center
Mon 10:31:26 PM 41.6897 -87.5675 320° Northwest 345 397 10,000 -49 Level Chicago Center
Mon 10:32:27 PM 41.7594 -87.6464 320° Northwest 334 384 9,900 -380 Descending Chicago Center
Mon 10:32:45 PM 41.7833 -87.6667 328° Northwest 300 345 9,500 -1,250 Descending Chicago TRACON
Mon 10:33:39 PM 41.8333 -87.7500 309° West 295 339 8,400 -1,368 Descending Chicago TRACON
Mon 10:34:39 PM 41.8333 -87.8500 270° West 294 338 6,900 -1,500 Descending Chicago TRACON

Login

Don't have an account? Register now (free) for customized features, flight alerts, and more!